Terminal Aerodrome Forecast
Issued by NWS

Home | Current Version | Previous Version | Text Only | Print | Product List | Glossary On
Versions: 1 2 3 4 5 6 7 8 9 10 11 12 13 14 15 16 17 18
000
FTUS43 KBIS 162000 AAA
TAFMOT
TAF AMD
KMOT 162042Z 1621/1718 05009KT P6SM OVC050
     FM171000 09005KT 6SM BR OVC018
     FM171500 12008KT P6SM BKN030=

USA.gov is the U.S. government's official web portal to all federal, state and local government web resources and services.